createdAt,value
2024-04-23T00:01:08.822Z,6.47
2024-04-23T00:03:48.956Z,7.20
2024-04-23T00:06:17.488Z,7.60
2024-04-23T00:08:56.496Z,8.00
2024-04-23T00:11:29.633Z,9.17
2024-04-23T00:14:17.662Z,7.50
2024-04-23T00:16:45.984Z,7.37
2024-04-23T00:19:24.418Z,8.30
2024-04-23T00:21:52.450Z,7.63
2024-04-23T00:24:24.764Z,8.90
2024-04-23T00:27:02.021Z,9.57
2024-04-23T00:29:48.823Z,9.63
2024-04-23T00:32:17.042Z,9.00
2024-04-23T00:34:49.857Z,11.23
2024-04-23T00:37:18.698Z,7.90
2024-04-23T00:39:59.452Z,9.33
2024-04-23T00:42:28.853Z,9.60
2024-04-23T00:45:14.435Z,9.10
2024-04-23T00:47:41.912Z,10.47
2024-04-23T00:50:17.416Z,9.90
2024-04-23T00:52:46.693Z,8.60
2024-04-23T00:55:22.274Z,7.77
2024-04-23T00:57:51.416Z,10.70
2024-04-23T01:00:35.884Z,9.57
2024-04-23T01:03:14.529Z,9.77
2024-04-23T01:05:46.687Z,9.47
2024-04-23T01:08:18.610Z,9.93
2024-04-23T01:10:56.326Z,10.27
2024-04-23T01:13:26.933Z,10.90
2024-04-23T01:16:06.485Z,12.10
2024-04-23T01:18:35.887Z,11.33
2024-04-23T01:21:16.291Z,13.60
2024-04-23T01:23:49.996Z,11.83
2024-04-23T01:26:42.211Z,13.23
2024-04-23T01:29:11.462Z,9.83
2024-04-23T01:31:52.089Z,9.20
2024-04-23T01:34:24.245Z,10.97
2024-04-23T01:36:56.842Z,10.23
2024-04-23T01:39:27.301Z,10.63
2024-04-23T01:42:03.596Z,9.70
2024-04-23T01:44:31.813Z,10.50
2024-04-23T01:47:01.867Z,9.73
2024-04-23T01:49:30.712Z,14.70
2024-04-23T01:52:08.608Z,9.23
2024-04-23T01:54:39.404Z,8.27
2024-04-23T01:57:28.875Z,9.17
2024-04-23T01:59:59.819Z,8.53
2024-04-23T02:02:33.077Z,7.90
2024-04-23T02:05:05.041Z,12.40
2024-04-23T02:07:45.862Z,12.30
2024-04-23T02:10:13.781Z,11.50
2024-04-23T02:13:01.659Z,9.37
2024-04-23T02:15:33.684Z,10.90
2024-04-23T02:18:06.099Z,10.13
2024-04-23T02:20:36.829Z,8.80
2024-04-23T02:23:17.868Z,9.03
2024-04-23T02:25:49.406Z,10.20
2024-04-23T02:28:26.596Z,8.97
2024-04-23T02:30:58.499Z,9.47
2024-04-23T02:33:39.870Z,11.27
2024-04-23T02:36:09.288Z,9.17
2024-04-23T02:38:41.539Z,9.40
2024-04-23T02:41:10.894Z,10.90
2024-04-23T02:43:48.596Z,8.67
2024-04-23T02:46:26.452Z,13.03
2024-04-23T02:49:05.879Z,10.20
2024-04-23T02:51:34.734Z,11.93
2024-04-23T02:54:15.322Z,11.33
2024-04-23T02:56:44.740Z,9.53
2024-04-23T02:59:22.123Z,10.90
2024-04-23T03:02:01.206Z,10.30
2024-04-23T03:04:50.229Z,9.10
2024-04-23T03:07:24.893Z,10.70
2024-04-23T03:09:53.167Z,9.87
2024-04-23T03:12:32.737Z,12.07
2024-04-23T03:15:11.313Z,10.67
2024-04-23T03:17:46.521Z,10.03
2024-04-23T03:20:15.331Z,9.60
2024-04-23T03:22:45.332Z,13.67
2024-04-23T03:25:15.985Z,12.00
2024-04-23T03:27:55.984Z,11.83
2024-04-23T03:30:28.920Z,12.93
2024-04-23T03:33:02.870Z,12.30
2024-04-23T03:35:32.038Z,11.43
2024-04-23T03:38:07.716Z,11.33
2024-04-23T03:40:41.647Z,12.97
2024-04-23T03:43:15.066Z,11.97
2024-04-23T03:45:59.478Z,12.50
2024-04-23T03:48:30.727Z,12.83
2024-04-23T03:50:59.439Z,13.40
2024-04-23T03:53:34.096Z,12.00
2024-04-23T03:56:04.358Z,13.07
2024-04-23T03:58:45.494Z,11.83
2024-04-23T04:01:19.059Z,14.13
2024-04-23T04:04:07.618Z,12.00
2024-04-23T04:06:43.270Z,13.17
2024-04-23T04:09:28.256Z,13.60
2024-04-23T04:12:15.618Z,15.00
2024-04-23T04:14:50.622Z,12.93
2024-04-23T04:17:29.288Z,14.97
2024-04-23T04:20:08.714Z,14.77
2024-04-23T04:22:43.489Z,15.20
2024-04-23T04:25:14.867Z,13.80
2024-04-23T04:27:45.628Z,13.03
2024-04-23T04:30:14.588Z,13.10
2024-04-23T04:32:59.763Z,13.30
2024-04-23T04:35:28.550Z,13.53
2024-04-23T04:38:07.052Z,15.10
2024-04-23T04:40:46.287Z,14.23
2024-04-23T04:43:25.034Z,14.40
2024-04-23T04:45:52.900Z,14.50
2024-04-23T04:48:30.018Z,17.40
2024-04-23T04:50:59.505Z,18.73
2024-04-23T04:53:32.814Z,17.00
2024-04-23T04:56:01.175Z,18.27
2024-04-23T04:58:41.254Z,16.10
2024-04-23T05:01:11.137Z,17.03
2024-04-23T05:06:51.474Z,18.80
2024-04-23T05:09:33.788Z,16.97
2024-04-23T05:12:01.968Z,18.27
2024-04-23T05:14:35.667Z,17.90
2024-04-23T05:17:04.068Z,19.13
2024-04-23T05:19:49.714Z,17.77
2024-04-23T05:22:19.221Z,17.90
2024-04-23T05:24:57.325Z,18.23
2024-04-23T05:27:26.420Z,17.33
2024-04-23T05:30:06.025Z,16.20
2024-04-23T05:32:54.704Z,16.27
2024-04-23T05:35:38.518Z,22.83
2024-04-23T05:38:26.326Z,15.73
2024-04-23T05:41:04.357Z,20.57
2024-04-23T05:43:43.044Z,18.10
2024-04-23T05:46:18.434Z,16.93
2024-04-23T05:49:31.284Z,16.27
2024-04-23T05:53:06.775Z,19.00
2024-04-23T05:56:05.173Z,20.87
2024-04-23T05:58:34.371Z,17.20
2024-04-23T06:01:06.817Z,19.67
2024-04-23T06:03:44.856Z,20.63
2024-04-23T06:06:24.021Z,21.77
2024-04-23T06:08:56.288Z,21.13
2024-04-23T06:11:36.707Z,19.60
2024-04-23T06:14:16.550Z,21.80
2024-04-23T06:16:55.730Z,22.37
2024-04-23T06:19:41.982Z,21.17
2024-04-23T06:22:21.610Z,19.83
2024-04-23T06:24:55.991Z,21.23
2024-04-23T06:27:34.929Z,19.50
2024-04-23T06:30:12.009Z,24.20
2024-04-23T06:32:52.641Z,20.67
2024-04-23T06:35:21.854Z,20.70
2024-04-23T06:37:57.693Z,18.97
2024-04-23T06:40:29.067Z,20.53
2024-04-23T06:43:07.816Z,22.63
2024-04-23T06:45:44.273Z,22.17
2024-04-23T06:48:17.286Z,29.47
2024-04-23T06:50:50.018Z,20.33
2024-04-23T06:53:18.010Z,20.70
2024-04-23T06:55:59.935Z,20.37
2024-04-23T06:58:38.678Z,22.23
2024-04-23T07:01:10.414Z,23.57
2024-04-23T07:03:42.784Z,24.10
2024-04-23T07:06:11.546Z,26.50
2024-04-23T07:08:53.560Z,20.13
2024-04-23T07:11:26.710Z,22.40
2024-04-23T07:14:04.974Z,21.33
2024-04-23T07:16:46.671Z,20.93
2024-04-23T07:19:15.064Z,18.30
2024-04-23T07:21:55.105Z,28.10
2024-04-23T07:24:24.446Z,22.80
2024-04-23T07:27:05.060Z,21.93
2024-04-23T07:29:36.515Z,22.23
2024-04-23T07:32:17.633Z,25.60
2024-04-23T07:34:48.370Z,19.13
2024-04-23T07:37:18.635Z,21.10
2024-04-23T07:39:47.222Z,24.80
2024-04-23T07:42:28.080Z,24.97
2024-04-23T07:45:02.430Z,24.60
2024-04-23T07:47:43.817Z,22.73
2024-04-23T07:50:13.156Z,20.27
2024-04-23T07:52:52.117Z,22.90
2024-04-23T07:55:20.188Z,23.63
2024-04-23T07:57:54.716Z,20.13
2024-04-23T08:00:35.794Z,24.53
2024-04-23T08:03:14.967Z,20.30
2024-04-23T08:05:45.508Z,25.53
2024-04-23T08:08:19.377Z,26.97
2024-04-23T08:10:48.537Z,25.27
2024-04-23T08:13:32.085Z,28.10
2024-04-23T08:16:02.986Z,29.00
2024-04-23T08:18:42.215Z,24.40
2024-04-23T08:21:11.699Z,28.57
2024-04-23T08:23:52.585Z,25.80
2024-04-23T08:26:21.548Z,24.70
2024-04-23T08:29:00.979Z,28.30
2024-04-23T08:31:38.688Z,27.37
2024-04-23T08:34:09.499Z,25.27
2024-04-23T08:36:42.167Z,24.63
2024-04-23T08:39:10.559Z,27.53
2024-04-23T08:41:49.397Z,26.90
2024-04-23T08:44:22.565Z,23.80
2024-04-23T08:47:10.492Z,27.90
2024-04-23T08:49:40.991Z,27.10
2024-04-23T08:52:17.226Z,25.00
2024-04-23T08:54:44.949Z,27.03
2024-04-23T08:57:20.401Z,28.57
2024-04-23T08:59:51.922Z,26.57
2024-04-23T09:02:35.861Z,29.63
2024-04-23T09:05:09.014Z,25.30
2024-04-23T09:07:48.589Z,23.30
2024-04-23T09:10:16.463Z,29.43
2024-04-23T09:12:48.817Z,32.47
2024-04-23T09:15:17.481Z,26.10
2024-04-23T09:18:01.130Z,27.03
2024-04-23T09:20:32.308Z,24.47
2024-04-23T09:23:06.386Z,24.07
2024-04-23T09:25:36.044Z,25.67
2024-04-23T09:28:11.467Z,26.87
2024-04-23T09:30:41.354Z,27.70
2024-04-23T09:33:30.988Z,26.67
2024-04-23T09:36:07.982Z,29.63
2024-04-23T09:38:49.115Z,29.00
2024-04-23T09:41:18.069Z,30.87
2024-04-23T09:43:58.242Z,25.63
2024-04-23T09:46:34.984Z,27.40
2024-04-23T09:49:12.937Z,29.67
2024-04-23T09:51:41.434Z,28.50
2024-04-23T09:54:19.440Z,28.20
2024-04-23T09:56:47.932Z,24.80
2024-04-23T09:59:19.299Z,25.87
2024-04-23T10:01:49.407Z,27.57
2024-04-23T10:04:30.280Z,24.17
2024-04-23T10:07:06.031Z,25.50
2024-04-23T10:09:44.400Z,24.17
2024-04-23T10:12:15.901Z,24.30
2024-04-23T10:14:54.828Z,28.80
2024-04-23T10:17:32.713Z,27.00
2024-04-23T10:20:08.785Z,26.93
2024-04-23T10:22:38.503Z,23.97
2024-04-23T10:25:11.973Z,24.07
2024-04-23T10:27:42.747Z,23.70
2024-04-23T10:30:23.566Z,25.67
2024-04-23T10:32:52.735Z,24.40
2024-04-23T10:35:27.461Z,21.00
2024-04-23T10:38:03.951Z,20.10
2024-04-23T10:40:43.616Z,30.17
2024-04-23T10:43:18.889Z,25.27
2024-04-23T10:46:01.143Z,28.20
2024-04-23T10:48:39.415Z,26.87
2024-04-23T10:51:27.231Z,27.53
2024-04-23T10:54:00.623Z,26.83
2024-04-23T10:56:31.435Z,25.47
2024-04-23T10:59:08.888Z,25.13
2024-04-23T11:01:48.549Z,25.77
2024-04-23T11:04:28.556Z,31.40
2024-04-23T11:07:06.024Z,28.97
2024-04-23T11:09:54.715Z,31.73
2024-04-23T11:12:26.583Z,28.20
2024-04-23T11:15:09.582Z,29.17
2024-04-23T11:17:41.970Z,30.93
2024-04-23T11:20:17.093Z,24.57
2024-04-23T11:23:00.943Z,27.40
2024-04-23T11:25:41.017Z,28.80
2024-04-23T11:28:13.800Z,28.60
2024-04-23T11:30:52.489Z,27.50
2024-04-23T11:33:21.684Z,30.30
2024-04-23T11:35:59.492Z,30.63
2024-04-23T11:38:47.998Z,34.80
2024-04-23T11:41:19.597Z,32.57
2024-04-23T11:43:52.189Z,25.50
2024-04-23T11:46:21.115Z,30.53
2024-04-23T11:48:57.139Z,30.40
2024-04-23T11:51:25.712Z,32.90
2024-04-23T11:54:06.389Z,35.63
2024-04-23T11:56:36.190Z,31.63
2024-04-23T11:59:10.979Z,31.20
2024-04-23T12:01:39.492Z,28.20
2024-04-23T12:04:11.686Z,27.33
2024-04-23T12:06:41.315Z,31.90
2024-04-23T12:09:19.195Z,31.50
2024-04-23T12:11:48.175Z,29.23
2024-04-23T12:14:26.755Z,31.20
2024-04-23T12:16:58.630Z,29.40
2024-04-23T12:19:41.265Z,29.70
2024-04-23T12:22:26.676Z,30.00
2024-04-23T12:25:05.484Z,27.87
2024-04-23T12:27:48.064Z,25.63
2024-04-23T12:30:20.759Z,24.77
2024-04-23T12:32:56.690Z,26.13
2024-04-23T12:35:26.557Z,27.47
2024-04-23T12:38:05.648Z,28.60
2024-04-23T12:40:36.427Z,23.90
2024-04-23T12:43:16.200Z,29.63
2024-04-23T12:45:47.077Z,26.40
2024-04-23T12:48:26.788Z,26.73
2024-04-23T12:51:03.225Z,28.13
2024-04-23T12:53:41.826Z,25.90
2024-04-23T12:56:29.921Z,28.00
2024-04-23T12:58:58.722Z,24.93
2024-04-23T13:01:42.111Z,28.00
2024-04-23T13:04:13.559Z,27.43
2024-04-23T13:06:51.958Z,28.33
2024-04-23T13:09:21.880Z,27.77
2024-04-23T13:12:11.658Z,30.50
2024-04-23T13:14:40.937Z,27.50
2024-04-23T13:17:21.937Z,27.60
2024-04-23T13:19:50.754Z,25.27
2024-04-23T13:22:28.801Z,23.77
2024-04-23T13:24:59.029Z,22.43
2024-04-23T13:27:43.184Z,25.70
2024-04-23T13:30:12.940Z,24.87
2024-04-23T13:32:51.413Z,25.03
2024-04-23T13:35:21.249Z,25.27
2024-04-23T13:37:53.261Z,21.70
2024-04-23T13:40:22.582Z,25.07
2024-04-23T13:43:10.730Z,23.67
2024-04-23T13:45:41.708Z,27.70
2024-04-23T13:48:16.267Z,25.80
2024-04-23T13:50:44.449Z,25.80
2024-04-23T13:53:23.302Z,27.63
2024-04-23T13:55:53.977Z,25.13
2024-04-23T13:58:28.776Z,26.30
2024-04-23T14:01:05.471Z,30.13
2024-04-23T14:03:37.626Z,26.63
2024-04-23T14:06:15.994Z,27.00
2024-04-23T14:08:58.520Z,25.53
2024-04-23T14:11:28.905Z,26.87
2024-04-23T14:14:04.714Z,23.77
2024-04-23T14:16:35.657Z,23.80
2024-04-23T14:19:04.816Z,34.03
2024-04-23T14:21:42.407Z,22.17
2024-04-23T14:24:14.410Z,22.50
2024-04-23T14:26:49.726Z,24.23
2024-04-23T14:29:21.053Z,24.70
2024-04-23T14:31:51.931Z,23.77
2024-04-23T14:34:21.174Z,20.47
2024-04-23T14:36:59.743Z,21.00
2024-04-23T14:39:35.782Z,22.40
2024-04-23T14:42:13.726Z,26.27
2024-04-23T14:44:47.622Z,20.60
2024-04-23T14:47:27.940Z,21.47
2024-04-23T14:49:57.607Z,22.70
2024-04-23T14:52:35.763Z,24.50
2024-04-23T14:55:03.645Z,26.17
2024-04-23T14:57:35.197Z,21.00
2024-04-23T15:00:18.692Z,22.70
2024-04-23T15:02:50.454Z,20.37
2024-04-23T15:05:21.230Z,21.33
2024-04-23T15:07:57.137Z,20.07
2024-04-23T15:10:28.487Z,19.90
2024-04-23T15:13:03.245Z,19.73
2024-04-23T15:15:44.885Z,21.37
2024-04-23T15:18:19.283Z,22.00
2024-04-23T15:20:47.936Z,21.53
2024-04-23T15:23:29.601Z,21.20
2024-04-23T15:26:01.575Z,21.60
2024-04-23T15:28:37.037Z,22.27
2024-04-23T15:31:21.364Z,17.90
2024-04-23T15:33:56.462Z,20.57
2024-04-23T15:36:31.178Z,19.17
2024-04-23T15:39:09.750Z,19.00
2024-04-23T15:41:41.807Z,22.07
2024-04-23T15:44:15.065Z,21.90
2024-04-23T15:46:56.558Z,19.60
2024-04-23T15:49:31.588Z,20.67
2024-04-23T15:52:01.023Z,19.10
2024-04-23T15:54:34.550Z,19.60
2024-04-23T15:57:14.377Z,19.70
2024-04-23T15:59:53.967Z,18.03
2024-04-23T16:02:28.331Z,22.50
2024-04-23T16:05:08.029Z,18.07
2024-04-23T16:07:39.550Z,19.43
2024-04-23T16:10:20.808Z,19.13
2024-04-23T16:12:48.544Z,18.70
2024-04-23T16:15:22.886Z,19.13
2024-04-23T16:17:57.509Z,20.20
2024-04-23T16:20:36.847Z,18.33
2024-04-23T16:23:04.685Z,17.13
2024-04-23T16:25:36.537Z,18.83
2024-04-23T16:28:05.696Z,17.40
2024-04-23T16:30:45.303Z,14.70
2024-04-23T16:33:22.220Z,15.00
2024-04-23T16:36:04.717Z,16.27
2024-04-23T16:38:33.991Z,21.53
2024-04-23T16:41:13.003Z,15.27
2024-04-23T16:43:58.292Z,19.60
2024-04-23T16:46:39.834Z,17.23
2024-04-23T16:49:11.332Z,13.90
2024-04-23T16:51:52.058Z,15.40
2024-04-23T16:54:22.414Z,15.63
2024-04-23T16:57:01.356Z,15.70
2024-04-23T16:59:31.029Z,15.47
2024-04-23T17:02:09.739Z,11.70
2024-04-23T17:04:50.068Z,15.33
2024-04-23T17:07:32.842Z,15.93
2024-04-23T17:10:02.308Z,14.70
2024-04-23T17:12:42.472Z,12.33
2024-04-23T17:15:11.078Z,13.63
2024-04-23T17:17:52.415Z,12.87
2024-04-23T17:20:37.782Z,15.23
2024-04-23T17:23:07.163Z,13.23
2024-04-23T17:25:44.108Z,14.47
2024-04-23T17:28:12.915Z,11.57
2024-04-23T17:30:52.294Z,11.50
2024-04-23T17:33:24.552Z,15.97
2024-04-23T17:36:20.500Z,16.70
2024-04-23T17:38:49.059Z,12.27
2024-04-23T17:41:31.782Z,14.87
2024-04-23T17:44:01.203Z,15.33
2024-04-23T17:46:43.132Z,11.03
2024-04-23T17:49:17.297Z,13.97
2024-04-23T17:51:56.824Z,15.60
2024-04-23T17:54:27.783Z,14.70
2024-04-23T17:57:08.688Z,15.10
2024-04-23T17:59:38.268Z,11.30
2024-04-23T18:02:22.122Z,18.37
2024-04-23T18:04:58.269Z,18.40
2024-04-23T18:07:46.273Z,10.73
2024-04-23T18:10:18.031Z,12.37
2024-04-23T18:13:09.688Z,13.73
2024-04-23T18:15:51.021Z,10.23
2024-04-23T18:18:28.713Z,11.90
2024-04-23T18:21:01.462Z,11.80
2024-04-23T18:23:46.325Z,10.03
2024-04-23T18:26:15.943Z,10.60
2024-04-23T18:28:55.065Z,12.00
2024-04-23T18:31:26.412Z,9.13
2024-04-23T18:33:57.845Z,8.03
2024-04-23T18:36:32.459Z,8.40
2024-04-23T18:39:07.645Z,11.20
2024-04-23T18:41:36.516Z,10.70
2024-04-23T18:44:09.603Z,9.67
2024-04-23T18:46:43.396Z,8.77
2024-04-23T18:49:19.115Z,10.83
2024-04-23T18:51:54.450Z,13.07
2024-04-23T18:54:36.011Z,9.53
2024-04-23T18:57:07.601Z,11.43
2024-04-23T18:59:40.673Z,10.50
2024-04-23T19:02:15.836Z,9.13
2024-04-23T19:04:52.706Z,12.37
2024-04-23T19:07:21.782Z,12.40
2024-04-23T19:10:00.466Z,10.23
2024-04-23T19:12:33.446Z,12.33
2024-04-23T19:15:12.887Z,10.47
2024-04-23T19:17:52.574Z,11.37
2024-04-23T19:20:36.605Z,17.43
2024-04-23T19:23:08.701Z,13.70
2024-04-23T19:25:41.805Z,14.13
2024-04-23T19:28:14.108Z,11.97
2024-04-23T19:30:41.946Z,13.67
2024-04-23T19:33:20.743Z,11.83
2024-04-23T19:35:50.054Z,15.17
2024-04-23T19:38:33.072Z,15.70
2024-04-23T19:41:11.728Z,16.70
2024-04-23T19:43:51.919Z,13.53
2024-04-23T19:46:26.755Z,14.33
2024-04-23T19:49:01.437Z,15.23
2024-04-23T19:51:30.780Z,14.50
2024-04-23T19:54:05.336Z,15.73
2024-04-23T19:56:58.188Z,13.60
2024-04-23T19:59:36.970Z,15.53
2024-04-23T20:02:18.319Z,12.37
2024-04-23T20:04:54.072Z,14.33
2024-04-23T20:07:36.826Z,13.00
2024-04-23T20:10:11.885Z,12.00
2024-04-23T20:12:52.707Z,13.30
2024-04-23T20:15:26.029Z,17.30
2024-04-23T20:18:13.418Z,15.13
2024-04-23T20:20:50.343Z,15.83
2024-04-23T20:23:20.794Z,15.30
2024-04-23T20:25:54.622Z,17.00
2024-04-23T20:28:30.531Z,15.97
2024-04-23T20:31:03.172Z,14.50
2024-04-23T20:33:37.435Z,16.43
2024-04-23T20:36:18.428Z,14.07
2024-04-23T20:38:53.389Z,14.83
2024-04-23T20:41:31.940Z,13.37
2024-04-23T20:44:15.755Z,14.93
2024-04-23T20:46:48.314Z,15.33
2024-04-23T20:49:29.903Z,15.00
2024-04-23T20:52:12.576Z,13.40
2024-04-23T20:54:51.943Z,16.47
2024-04-23T20:57:24.525Z,13.53
2024-04-23T21:00:01.938Z,14.77
2024-04-23T21:05:43.087Z,16.33
2024-04-23T21:08:25.553Z,18.70
2024-04-23T21:11:06.126Z,18.93
2024-04-23T21:13:45.578Z,16.00
2024-04-23T21:16:26.734Z,16.70
2024-04-23T21:19:11.229Z,13.93
2024-04-23T21:21:51.321Z,15.93
2024-04-23T21:24:23.788Z,14.77
2024-04-23T21:27:02.716Z,17.73
2024-04-23T21:29:43.049Z,14.90
2024-04-23T21:32:21.700Z,18.20
2024-04-23T21:35:00.393Z,15.07
2024-04-23T21:37:39.108Z,15.37
2024-04-23T21:40:19.363Z,15.17
2024-04-23T21:42:54.413Z,18.63
2024-04-23T21:45:29.137Z,13.90
2024-04-23T21:48:09.439Z,15.30
2024-04-23T21:50:51.731Z,16.03
2024-04-23T21:53:26.642Z,16.80
2024-04-23T21:56:02.686Z,13.77
2024-04-23T21:58:41.023Z,14.83
2024-04-23T22:01:18.914Z,18.50
2024-04-23T22:04:11.282Z,17.23
2024-04-23T22:09:47.230Z,15.40
2024-04-23T22:12:25.084Z,15.07
2024-04-23T22:15:03.627Z,14.97
2024-04-23T22:17:45.315Z,13.50
2024-04-23T22:20:32.726Z,16.73
2024-04-23T22:23:12.466Z,16.90
2024-04-23T22:25:52.855Z,16.00
2024-04-23T22:28:30.932Z,13.50
2024-04-23T22:31:11.318Z,13.20
2024-04-23T22:33:49.230Z,16.97
2024-04-23T22:36:33.422Z,19.60
2024-04-23T22:39:13.994Z,16.57
2024-04-23T22:41:47.535Z,12.67
2024-04-23T22:44:18.773Z,13.00
2024-04-23T22:46:50.532Z,14.67
2024-04-23T22:49:31.064Z,12.40
2024-04-23T22:52:18.102Z,12.60
2024-04-23T22:54:56.283Z,17.60
2024-04-23T22:57:34.930Z,14.07
2024-04-23T23:00:16.093Z,16.77
2024-04-23T23:03:00.307Z,13.27
2024-04-23T23:05:40.517Z,15.03
2024-04-23T23:08:26.127Z,14.13
2024-04-23T23:11:05.840Z,15.10
2024-04-23T23:13:38.940Z,17.53
2024-04-23T23:16:10.622Z,14.00
2024-04-23T23:18:42.693Z,14.63
2024-04-23T23:21:16.150Z,15.10
2024-04-23T23:23:58.904Z,15.37
2024-04-23T23:26:32.736Z,15.43
2024-04-23T23:29:02.665Z,17.50
2024-04-23T23:31:41.271Z,14.83
2024-04-23T23:34:22.654Z,17.67
2024-04-23T23:37:01.591Z,20.40
2024-04-23T23:39:46.487Z,16.40
2024-04-23T23:42:16.747Z,14.70
2024-04-23T23:44:55.839Z,15.60
2024-04-23T23:47:35.473Z,13.67
2024-04-23T23:50:08.550Z,12.10
2024-04-23T23:52:48.066Z,15.43
2024-04-23T23:55:26.420Z,15.07
2024-04-23T23:58:02.291Z,13.90
